sensor_id;sensor_type;location;lat;lon;timestamp;temperature;humidity
9497;DHT22;4786;51.270;4.456;2024-01-07T07:10:25;2.50;99.90
9497;DHT22;4786;51.270;4.456;2024-01-07T07:12:51;2.70;99.90
9497;DHT22;4786;51.270;4.456;2024-01-07T07:15:17;2.60;99.90
9497;DHT22;4786;51.270;4.456;2024-01-07T07:17:43;2.70;99.90
9497;DHT22;4786;51.270;4.456;2024-01-07T07:20:09;2.70;99.90
9497;DHT22;4786;51.270;4.456;2024-01-07T07:22:35;2.70;99.90
9497;DHT22;4786;51.270;4.456;2024-01-07T07:25:01;2.90;99.90
9497;DHT22;4786;51.270;4.456;2024-01-07T07:27:27;2.60;99.90
9497;DHT22;4786;51.270;4.456;2024-01-07T07:29:53;2.70;99.90
9497;DHT22;4786;51.270;4.456;2024-01-07T07:32:20;2.70;99.90
9497;DHT22;4786;51.270;4.456;2024-01-07T07:34:46;2.70;99.90
9497;DHT22;4786;51.270;4.456;2024-01-07T07:37:13;2.80;99.90
9497;DHT22;4786;51.270;4.456;2024-01-07T07:39:39;2.80;99.90
9497;DHT22;4786;51.270;4.456;2024-01-07T07:42:05;2.80;99.90
9497;DHT22;4786;51.270;4.456;2024-01-07T07:44:31;2.80;99.90
9497;DHT22;4786;51.270;4.456;2024-01-07T07:46:57;3.10;99.90
9497;DHT22;4786;51.270;4.456;2024-01-07T07:49:23;2.90;99.90
9497;DHT22;4786;51.270;4.456;2024-01-07T07:51:49;2.90;99.90
9497;DHT22;4786;51.270;4.456;2024-01-07T07:54:15;2.80;99.90
9497;DHT22;4786;51.270;4.456;2024-01-07T07:56:41;2.80;99.90
9497;DHT22;4786;51.270;4.456;2024-01-07T07:59:06;2.70;99.90
9497;DHT22;4786;51.270;4.456;2024-01-07T08:01:34;2.70;99.90
9497;DHT22;4786;51.270;4.456;2024-01-07T08:04:00;2.70;99.90
9497;DHT22;4786;51.270;4.456;2024-01-07T08:06:27;2.80;99.90
9497;DHT22;4786;51.270;4.456;2024-01-07T08:08:53;2.70;99.90
9497;DHT22;4786;51.270;4.456;2024-01-07T08:11:18;2.70;99.90
9497;DHT22;4786;51.270;4.456;2024-01-07T08:13:44;2.90;99.90
9497;DHT22;4786;51.270;4.456;2024-01-07T08:16:10;2.70;99.90
9497;DHT22;4786;51.270;4.456;2024-01-07T08:18:37;2.70;99.90
9497;DHT22;4786;51.270;4.456;2024-01-07T08:21:03;2.80;99.90
9497;DHT22;4786;51.270;4.456;2024-01-07T08:23:29;2.70;99.90
9497;DHT22;4786;51.270;4.456;2024-01-07T08:25:54;2.60;99.90
9497;DHT22;4786;51.270;4.456;2024-01-07T08:28:20;2.60;99.90
9497;DHT22;4786;51.270;4.456;2024-01-07T08:30:47;2.50;99.90
9497;DHT22;4786;51.270;4.456;2024-01-07T08:33:13;2.60;99.90
9497;DHT22;4786;51.270;4.456;2024-01-07T08:35:38;2.70;99.90
9497;DHT22;4786;51.270;4.456;2024-01-07T08:38:05;2.70;99.90
9497;DHT22;4786;51.270;4.456;2024-01-07T08:40:31;2.70;99.90
9497;DHT22;4786;51.270;4.456;2024-01-07T08:42:57;2.80;99.90
9497;DHT22;4786;51.270;4.456;2024-01-07T08:45:22;2.90;99.90
9497;DHT22;4786;51.270;4.456;2024-01-07T08:47:49;2.80;99.90
9497;DHT22;4786;51.270;4.456;2024-01-07T08:50:15;2.70;99.90
9497;DHT22;4786;51.270;4.456;2024-01-07T08:52:41;2.70;99.90
9497;DHT22;4786;51.270;4.456;2024-01-07T08:55:07;2.80;99.90
9497;DHT22;4786;51.270;4.456;2024-01-07T08:57:35;2.70;99.90
9497;DHT22;4786;51.270;4.456;2024-01-07T09:00:01;2.70;99.90
9497;DHT22;4786;51.270;4.456;2024-01-07T09:02:27;2.70;99.90
9497;DHT22;4786;51.270;4.456;2024-01-07T09:04:53;2.70;99.90
9497;DHT22;4786;51.270;4.456;2024-01-07T09:07:19;2.70;99.90
9497;DHT22;4786;51.270;4.456;2024-01-07T09:09:45;2.70;99.90
9497;DHT22;4786;51.270;4.456;2024-01-07T09:12:11;2.60;99.90
9497;DHT22;4786;51.270;4.456;2024-01-07T09:14:40;2.60;99.90
9497;DHT22;4786;51.270;4.456;2024-01-07T09:17:06;2.60;99.90
9497;DHT22;4786;51.270;4.456;2024-01-07T09:19:32;2.60;99.90
9497;DHT22;4786;51.270;4.456;2024-01-07T09:21:58;2.80;99.90
9497;DHT22;4786;51.270;4.456;2024-01-07T09:24:24;2.70;99.90
9497;DHT22;4786;51.270;4.456;2024-01-07T09:26:50;2.50;99.90
9497;DHT22;4786;51.270;4.456;2024-01-07T09:29:17;2.50;99.90
9497;DHT22;4786;51.270;4.456;2024-01-07T09:31:42;2.50;99.90
9497;DHT22;4786;51.270;4.456;2024-01-07T09:34:08;2.70;99.90
9497;DHT22;4786;51.270;4.456;2024-01-07T09:36:34;2.50;99.90
9497;DHT22;4786;51.270;4.456;2024-01-07T09:39:01;2.50;99.90
9497;DHT22;4786;51.270;4.456;2024-01-07T09:41:30;2.50;99.90
9497;DHT22;4786;51.270;4.456;2024-01-07T09:43:56;2.50;99.90
9497;DHT22;4786;51.270;4.456;2024-01-07T09:46:23;2.40;99.90
9497;DHT22;4786;51.270;4.456;2024-01-07T09:48:49;2.40;99.90
9497;DHT22;4786;51.270;4.456;2024-01-07T09:51:16;2.50;99.90
9497;DHT22;4786;51.270;4.456;2024-01-07T09:53:45;2.50;99.90
9497;DHT22;4786;51.270;4.456;2024-01-07T09:58:45;2.60;99.90
9497;DHT22;4786;51.270;4.456;2024-01-07T10:01:13;2.60;99.90
9497;DHT22;4786;51.270;4.456;2024-01-07T10:03:40;2.60;99.90
9497;DHT22;4786;51.270;4.456;2024-01-07T10:06:05;2.60;99.90
9497;DHT22;4786;51.270;4.456;2024-01-07T10:08:32;2.60;99.90
9497;DHT22;4786;51.270;4.456;2024-01-07T10:10:58;2.60;99.90
9497;DHT22;4786;51.270;4.456;2024-01-07T10:13:24;2.50;99.90
9497;DHT22;4786;51.270;4.456;2024-01-07T10:15:51;2.50;99.90
9497;DHT22;4786;51.270;4.456;2024-01-07T10:18:18;2.40;99.90
9497;DHT22;4786;51.270;4.456;2024-01-07T10:20:44;2.40;99.90
9497;DHT22;4786;51.270;4.456;2024-01-07T10:23:10;2.40;99.90
9497;DHT22;4786;51.270;4.456;2024-01-07T10:25:36;2.40;99.90
9497;DHT22;4786;51.270;4.456;2024-01-07T10:28:03;2.40;99.90
9497;DHT22;4786;51.270;4.456;2024-01-07T10:30:29;2.50;99.90
9497;DHT22;4786;51.270;4.456;2024-01-07T10:32:59;2.50;99.90
9497;DHT22;4786;51.270;4.456;2024-01-07T10:35:34;2.60;99.90
9497;DHT22;4786;51.270;4.456;2024-01-07T10:38:01;2.40;99.90
9497;DHT22;4786;51.270;4.456;2024-01-07T10:40:29;2.40;99.90
9497;DHT22;4786;51.270;4.456;2024-01-07T10:42:56;2.50;99.90
9497;DHT22;4786;51.270;4.456;2024-01-07T10:45:22;2.60;99.90
9497;DHT22;4786;51.270;4.456;2024-01-07T10:47:49;2.60;99.90
9497;DHT22;4786;51.270;4.456;2024-01-07T10:50:18;2.50;99.90
9497;DHT22;4786;51.270;4.456;2024-01-07T10:52:49;2.50;99.90
9497;DHT22;4786;51.270;4.456;2024-01-07T10:55:18;2.50;99.90
9497;DHT22;4786;51.270;4.456;2024-01-07T10:57:48;2.50;99.90
9497;DHT22;4786;51.270;4.456;2024-01-07T11:00:16;2.30;99.90
9497;DHT22;4786;51.270;4.456;2024-01-07T11:03:17;2.40;99.90
9497;DHT22;4786;51.270;4.456;2024-01-07T11:05:54;2.40;99.90
9497;DHT22;4786;51.270;4.456;2024-01-07T11:11:21;2.50;99.90
9497;DHT22;4786;51.270;4.456;2024-01-07T11:13:49;2.50;99.90
9497;DHT22;4786;51.270;4.456;2024-01-07T11:16:42;2.60;99.90
9497;DHT22;4786;51.270;4.456;2024-01-07T11:19:07;2.70;99.90
9497;DHT22;4786;51.270;4.456;2024-01-07T11:21:33;2.70;99.90
9497;DHT22;4786;51.270;4.456;2024-01-07T11:23:59;2.80;99.90
9497;DHT22;4786;51.270;4.456;2024-01-07T11:26:28;2.90;99.90
9497;DHT22;4786;51.270;4.456;2024-01-07T11:28:56;2.90;99.90
9497;DHT22;4786;51.270;4.456;2024-01-07T11:31:42;2.80;99.90
9497;DHT22;4786;51.270;4.456;2024-01-07T11:34:08;2.70;99.90
9497;DHT22;4786;51.270;4.456;2024-01-07T11:36:38;2.80;99.90
9497;DHT22;4786;51.270;4.456;2024-01-07T11:39:04;2.80;99.90
9497;DHT22;4786;51.270;4.456;2024-01-07T11:41:34;2.70;99.90
9497;DHT22;4786;51.270;4.456;2024-01-07T11:44:01;2.50;99.90
9497;DHT22;4786;51.270;4.456;2024-01-07T11:46:29;2.60;99.90
9497;DHT22;4786;51.270;4.456;2024-01-07T11:48:57;2.60;99.90
9497;DHT22;4786;51.270;4.456;2024-01-07T11:51:27;2.50;99.90
9497;DHT22;4786;51.270;4.456;2024-01-07T11:53:53;2.50;99.90
9497;DHT22;4786;51.270;4.456;2024-01-07T11:56:19;2.70;99.90
9497;DHT22;4786;51.270;4.456;2024-01-07T11:58:44;2.70;99.90
9497;DHT22;4786;51.270;4.456;2024-01-07T12:01:10;2.70;99.90
9497;DHT22;4786;51.270;4.456;2024-01-07T12:03:36;2.50;99.90
9497;DHT22;4786;51.270;4.456;2024-01-07T12:06:03;2.50;99.90
9497;DHT22;4786;51.270;4.456;2024-01-07T12:08:29;2.40;99.90
9497;DHT22;4786;51.270;4.456;2024-01-07T12:10:56;2.60;99.90
9497;DHT22;4786;51.270;4.456;2024-01-07T12:13:22;2.50;99.90
9497;DHT22;4786;51.270;4.456;2024-01-07T12:15:48;2.50;99.90
9497;DHT22;4786;51.270;4.456;2024-01-07T12:18:15;2.60;99.90
9497;DHT22;4786;51.270;4.456;2024-01-07T12:20:41;2.70;99.90
9497;DHT22;4786;51.270;4.456;2024-01-07T12:23:08;2.70;99.90
9497;DHT22;4786;51.270;4.456;2024-01-07T12:25:35;2.60;99.90
9497;DHT22;4786;51.270;4.456;2024-01-07T12:28:01;2.70;99.90
9497;DHT22;4786;51.270;4.456;2024-01-07T12:30:27;2.70;99.90
9497;DHT22;4786;51.270;4.456;2024-01-07T12:32:53;2.80;99.90
9497;DHT22;4786;51.270;4.456;2024-01-07T12:35:20;2.70;99.90
9497;DHT22;4786;51.270;4.456;2024-01-07T12:37:48;2.70;99.90
9497;DHT22;4786;51.270;4.456;2024-01-07T12:40:14;2.70;99.90
9497;DHT22;4786;51.270;4.456;2024-01-07T12:42:41;2.70;99.90
9497;DHT22;4786;51.270;4.456;2024-01-07T12:45:14;2.80;99.90
9497;DHT22;4786;51.270;4.456;2024-01-07T12:47:41;2.70;99.90
9497;DHT22;4786;51.270;4.456;2024-01-07T12:50:09;2.70;99.90
9497;DHT22;4786;51.270;4.456;2024-01-07T12:52:38;2.70;99.90
9497;DHT22;4786;51.270;4.456;2024-01-07T12:55:07;2.70;99.90
9497;DHT22;4786;51.270;4.456;2024-01-07T12:57:34;2.70;99.90
9497;DHT22;4786;51.270;4.456;2024-01-07T13:00:00;2.70;99.90
9497;DHT22;4786;51.270;4.456;2024-01-07T13:02:26;2.50;99.90
9497;DHT22;4786;51.270;4.456;2024-01-07T13:04:53;2.40;99.90
9497;DHT22;4786;51.270;4.456;2024-01-07T13:07:19;2.30;99.90
9497;DHT22;4786;51.270;4.456;2024-01-07T13:09:45;2.40;99.90
9497;DHT22;4786;51.270;4.456;2024-01-07T13:12:12;2.40;99.90
9497;DHT22;4786;51.270;4.456;2024-01-07T13:14:38;2.40;99.90
9497;DHT22;4786;51.270;4.456;2024-01-07T13:17:03;2.60;99.90
9497;DHT22;4786;51.270;4.456;2024-01-07T13:19:29;2.50;99.90
9497;DHT22;4786;51.270;4.456;2024-01-07T13:21:55;2.60;99.90
9497;DHT22;4786;51.270;4.456;2024-01-07T13:24:23;2.50;99.90
9497;DHT22;4786;51.270;4.456;2024-01-07T13:26:50;2.40;99.90
9497;DHT22;4786;51.270;4.456;2024-01-07T13:29:16;2.50;99.90
9497;DHT22;4786;51.270;4.456;2024-01-07T13:31:42;2.60;99.90
9497;DHT22;4786;51.270;4.456;2024-01-07T13:34:08;2.50;99.90
9497;DHT22;4786;51.270;4.456;2024-01-07T13:36:34;2.50;99.90
9497;DHT22;4786;51.270;4.456;2024-01-07T13:39:00;2.60;99.90
9497;DHT22;4786;51.270;4.456;2024-01-07T13:41:27;2.80;99.90
9497;DHT22;4786;51.270;4.456;2024-01-07T13:43:54;2.60;99.90
9497;DHT22;4786;51.270;4.456;2024-01-07T13:46:21;2.50;99.90
9497;DHT22;4786;51.270;4.456;2024-01-07T13:48:49;2.70;99.90
9497;DHT22;4786;51.270;4.456;2024-01-07T13:51:14;2.50;99.90
9497;DHT22;4786;51.270;4.456;2024-01-07T13:53:41;2.50;99.90
9497;DHT22;4786;51.270;4.456;2024-01-07T13:56:07;2.30;99.90
9497;DHT22;4786;51.270;4.456;2024-01-07T13:58:33;2.50;99.90
9497;DHT22;4786;51.270;4.456;2024-01-07T14:00:58;2.30;99.90
9497;DHT22;4786;51.270;4.456;2024-01-07T14:03:25;2.30;99.90
9497;DHT22;4786;51.270;4.456;2024-01-07T14:05:51;2.50;99.90
9497;DHT22;4786;51.270;4.456;2024-01-07T14:08:17;2.50;99.90
9497;DHT22;4786;51.270;4.456;2024-01-07T14:10:43;2.60;99.90
9497;DHT22;4786;51.270;4.456;2024-01-07T14:13:09;2.60;99.90
9497;DHT22;4786;51.270;4.456;2024-01-07T14:15:34;2.50;99.90
9497;DHT22;4786;51.270;4.456;2024-01-07T14:18:01;2.70;99.90
9497;DHT22;4786;51.270;4.456;2024-01-07T14:20:27;2.70;99.90
9497;DHT22;4786;51.270;4.456;2024-01-07T14:22:54;2.50;99.90
9497;DHT22;4786;51.270;4.456;2024-01-07T14:25:19;2.50;99.90
9497;DHT22;4786;51.270;4.456;2024-01-07T14:27:46;2.50;99.90
9497;DHT22;4786;51.270;4.456;2024-01-07T14:30:12;2.50;99.90
9497;DHT22;4786;51.270;4.456;2024-01-07T14:32:41;2.40;99.90
9497;DHT22;4786;51.270;4.456;2024-01-07T14:35:08;2.30;99.90
9497;DHT22;4786;51.270;4.456;2024-01-07T14:37:34;2.40;99.90
9497;DHT22;4786;51.270;4.456;2024-01-07T14:39:59;2.60;99.90
9497;DHT22;4786;51.270;4.456;2024-01-07T14:42:25;2.30;99.90
9497;DHT22;4786;51.270;4.456;2024-01-07T14:44:51;2.30;99.90
9497;DHT22;4786;51.270;4.456;2024-01-07T14:47:16;2.40;99.90
9497;DHT22;4786;51.270;4.456;2024-01-07T14:49:43;2.20;99.90
9497;DHT22;4786;51.270;4.456;2024-01-07T14:52:09;2.10;99.90
9497;DHT22;4786;51.270;4.456;2024-01-07T14:54:34;2.10;99.90
9497;DHT22;4786;51.270;4.456;2024-01-07T14:57:02;2.00;99.90
9497;DHT22;4786;51.270;4.456;2024-01-07T14:59:29;2.00;99.90
9497;DHT22;4786;51.270;4.456;2024-01-07T15:01:55;2.10;99.90
9497;DHT22;4786;51.270;4.456;2024-01-07T15:04:21;1.70;99.90
9497;DHT22;4786;51.270;4.456;2024-01-07T15:06:46;1.80;99.90
9497;DHT22;4786;51.270;4.456;2024-01-07T15:09:14;1.70;99.90
9497;DHT22;4786;51.270;4.456;2024-01-07T15:11:40;1.70;99.90
9497;DHT22;4786;51.270;4.456;2024-01-07T15:14:08;1.70;99.90
9497;DHT22;4786;51.270;4.456;2024-01-07T15:16:35;1.70;99.90
9497;DHT22;4786;51.270;4.456;2024-01-07T15:19:01;1.70;99.90
9497;DHT22;4786;51.270;4.456;2024-01-07T15:21:27;1.70;99.90
9497;DHT22;4786;51.270;4.456;2024-01-07T15:23:53;1.70;99.90
9497;DHT22;4786;51.270;4.456;2024-01-07T15:26:19;1.70;99.90
9497;DHT22;4786;51.270;4.456;2024-01-07T15:28:45;1.80;99.90
9497;DHT22;4786;51.270;4.456;2024-01-07T15:31:11;1.70;99.90
9497;DHT22;4786;51.270;4.456;2024-01-07T15:33:36;1.70;99.90
9497;DHT22;4786;51.270;4.456;2024-01-07T15:36:03;1.60;99.90
9497;DHT22;4786;51.270;4.456;2024-01-07T15:38:29;1.60;99.90
9497;DHT22;4786;51.270;4.456;2024-01-07T15:40:54;1.60;99.90
9497;DHT22;4786;51.270;4.456;2024-01-07T15:43:20;1.60;99.90
9497;DHT22;4786;51.270;4.456;2024-01-07T15:45:46;1.60;99.90
9497;DHT22;4786;51.270;4.456;2024-01-07T15:48:12;1.70;99.90
9497;DHT22;4786;51.270;4.456;2024-01-07T15:50:39;1.70;99.90
9497;DHT22;4786;51.270;4.456;2024-01-07T15:53:04;1.80;99.90
9497;DHT22;4786;51.270;4.456;2024-01-07T15:55:31;2.10;99.90
9497;DHT22;4786;51.270;4.456;2024-01-07T15:57:57;1.90;99.90
9497;DHT22;4786;51.270;4.456;2024-01-07T16:00:22;1.70;99.90
9497;DHT22;4786;51.270;4.456;2024-01-07T16:02:48;1.60;99.90
9497;DHT22;4786;51.270;4.456;2024-01-07T16:05:14;1.20;99.90
9497;DHT22;4786;51.270;4.456;2024-01-07T16:07:40;1.40;99.90
9497;DHT22;4786;51.270;4.456;2024-01-07T16:10:06;1.40;99.90
9497;DHT22;4786;51.270;4.456;2024-01-07T16:12:31;1.30;99.90
9497;DHT22;4786;51.270;4.456;2024-01-07T16:14:58;1.20;99.90
9497;DHT22;4786;51.270;4.456;2024-01-07T16:17:24;1.30;99.90
9497;DHT22;4786;51.270;4.456;2024-01-07T16:19:51;1.20;99.90
9497;DHT22;4786;51.270;4.456;2024-01-07T16:22:17;1.30;99.90
9497;DHT22;4786;51.270;4.456;2024-01-07T16:24:43;1.20;99.90
9497;DHT22;4786;51.270;4.456;2024-01-07T16:27:10;1.20;99.90
9497;DHT22;4786;51.270;4.456;2024-01-07T16:29:36;1.20;99.90
9497;DHT22;4786;51.270;4.456;2024-01-07T16:32:03;1.10;99.90
9497;DHT22;4786;51.270;4.456;2024-01-07T16:34:29;1.10;99.90
9497;DHT22;4786;51.270;4.456;2024-01-07T16:36:55;1.10;99.90
9497;DHT22;4786;51.270;4.456;2024-01-07T16:39:21;1.10;99.90
9497;DHT22;4786;51.270;4.456;2024-01-07T16:41:47;1.20;99.90
9497;DHT22;4786;51.270;4.456;2024-01-07T16:44:13;1.10;99.90
9497;DHT22;4786;51.270;4.456;2024-01-07T16:46:39;1.20;99.90
9497;DHT22;4786;51.270;4.456;2024-01-07T16:49:05;1.10;99.90
9497;DHT22;4786;51.270;4.456;2024-01-07T16:51:33;0.90;99.90
9497;DHT22;4786;51.270;4.456;2024-01-07T16:53:59;1.00;99.90
9497;DHT22;4786;51.270;4.456;2024-01-07T16:56:24;1.00;99.90
9497;DHT22;4786;51.270;4.456;2024-01-07T16:58:50;1.10;99.90
9497;DHT22;4786;51.270;4.456;2024-01-07T17:01:16;1.20;99.90
9497;DHT22;4786;51.270;4.456;2024-01-07T17:03:42;1.10;99.90
9497;DHT22;4786;51.270;4.456;2024-01-07T17:06:09;1.10;99.90
9497;DHT22;4786;51.270;4.456;2024-01-07T17:08:35;1.00;99.90
9497;DHT22;4786;51.270;4.456;2024-01-07T17:11:02;0.90;99.90
9497;DHT22;4786;51.270;4.456;2024-01-07T17:13:27;0.80;99.90
9497;DHT22;4786;51.270;4.456;2024-01-07T17:15:53;0.80;99.90
9497;DHT22;4786;51.270;4.456;2024-01-07T17:18:20;0.80;99.90
9497;DHT22;4786;51.270;4.456;2024-01-07T17:20:46;0.80;99.90
9497;DHT22;4786;51.270;4.456;2024-01-07T17:23:12;0.70;99.90
9497;DHT22;4786;51.270;4.456;2024-01-07T17:25:38;0.70;99.90
9497;DHT22;4786;51.270;4.456;2024-01-07T17:28:06;0.70;99.90
9497;DHT22;4786;51.270;4.456;2024-01-07T17:30:32;0.90;99.90
9497;DHT22;4786;51.270;4.456;2024-01-07T17:32:58;0.60;99.90
9497;DHT22;4786;51.270;4.456;2024-01-07T17:35:25;0.80;99.90
9497;DHT22;4786;51.270;4.456;2024-01-07T17:37:51;0.90;99.90
9497;DHT22;4786;51.270;4.456;2024-01-07T17:40:17;0.60;99.90
9497;DHT22;4786;51.270;4.456;2024-01-07T17:42:43;0.60;99.90
9497;DHT22;4786;51.270;4.456;2024-01-07T17:45:08;0.60;99.90
9497;DHT22;4786;51.270;4.456;2024-01-07T17:47:39;0.60;99.90
9497;DHT22;4786;51.270;4.456;2024-01-07T17:50:05;0.60;99.90
9497;DHT22;4786;51.270;4.456;2024-01-07T17:52:33;0.50;99.90
9497;DHT22;4786;51.270;4.456;2024-01-07T17:54:58;0.60;99.90
9497;DHT22;4786;51.270;4.456;2024-01-07T17:57:26;0.60;99.90
9497;DHT22;4786;51.270;4.456;2024-01-07T17:59:52;0.60;99.90
9497;DHT22;4786;51.270;4.456;2024-01-07T18:02:18;0.60;99.90
9497;DHT22;4786;51.270;4.456;2024-01-07T18:04:44;0.70;99.90
9497;DHT22;4786;51.270;4.456;2024-01-07T18:07:09;0.50;99.90
9497;DHT22;4786;51.270;4.456;2024-01-07T18:09:37;0.50;99.90
9497;DHT22;4786;51.270;4.456;2024-01-07T18:12:03;0.50;99.90
9497;DHT22;4786;51.270;4.456;2024-01-07T18:14:29;0.50;99.90
9497;DHT22;4786;51.270;4.456;2024-01-07T18:16:55;0.50;99.90
9497;DHT22;4786;51.270;4.456;2024-01-07T18:19:21;0.50;99.90
9497;DHT22;4786;51.270;4.456;2024-01-07T18:21:47;0.80;99.90
9497;DHT22;4786;51.270;4.456;2024-01-07T18:24:12;0.50;99.90
9497;DHT22;4786;51.270;4.456;2024-01-07T18:26:39;0.50;99.90
9497;DHT22;4786;51.270;4.456;2024-01-07T18:29:05;0.60;99.90
9497;DHT22;4786;51.270;4.456;2024-01-07T18:31:31;0.60;99.90
9497;DHT22;4786;51.270;4.456;2024-01-07T18:33:57;0.50;99.90
9497;DHT22;4786;51.270;4.456;2024-01-07T18:36:23;0.50;99.90
9497;DHT22;4786;51.270;4.456;2024-01-07T18:38:49;0.40;99.90
9497;DHT22;4786;51.270;4.456;2024-01-07T18:41:18;0.40;99.90
9497;DHT22;4786;51.270;4.456;2024-01-07T18:43:44;0.30;99.90
9497;DHT22;4786;51.270;4.456;2024-01-07T18:46:10;0.40;99.90
9497;DHT22;4786;51.270;4.456;2024-01-07T18:48:36;0.70;99.90
9497;DHT22;4786;51.270;4.456;2024-01-07T18:51:02;0.70;99.90
9497;DHT22;4786;51.270;4.456;2024-01-07T18:53:29;0.40;99.90
9497;DHT22;4786;51.270;4.456;2024-01-07T18:55:55;0.30;99.90
9497;DHT22;4786;51.270;4.456;2024-01-07T18:58:21;0.30;99.90
9497;DHT22;4786;51.270;4.456;2024-01-07T19:00:48;0.40;99.90
9497;DHT22;4786;51.270;4.456;2024-01-07T19:03:14;0.40;99.90
9497;DHT22;4786;51.270;4.456;2024-01-07T19:05:41;0.40;99.90
9497;DHT22;4786;51.270;4.456;2024-01-07T19:08:10;0.50;99.90
9497;DHT22;4786;51.270;4.456;2024-01-07T19:10:36;0.50;99.90
9497;DHT22;4786;51.270;4.456;2024-01-07T19:13:01;0.40;99.90
9497;DHT22;4786;51.270;4.456;2024-01-07T19:15:27;0.40;99.90
9497;DHT22;4786;51.270;4.456;2024-01-07T19:17:53;0.40;99.90
9497;DHT22;4786;51.270;4.456;2024-01-07T19:20:19;0.30;99.90
9497;DHT22;4786;51.270;4.456;2024-01-07T19:22:44;0.40;99.90
9497;DHT22;4786;51.270;4.456;2024-01-07T19:25:11;0.30;99.90
9497;DHT22;4786;51.270;4.456;2024-01-07T19:27:40;0.30;99.90
9497;DHT22;4786;51.270;4.456;2024-01-07T19:30:06;0.30;99.90
9497;DHT22;4786;51.270;4.456;2024-01-07T19:32:32;0.40;99.90
9497;DHT22;4786;51.270;4.456;2024-01-07T19:34:58;0.30;99.90
9497;DHT22;4786;51.270;4.456;2024-01-07T19:37:24;0.30;99.90
9497;DHT22;4786;51.270;4.456;2024-01-07T19:39:50;0.20;99.90
9497;DHT22;4786;51.270;4.456;2024-01-07T19:42:16;0.20;99.90
9497;DHT22;4786;51.270;4.456;2024-01-07T19:44:42;0.40;99.90
9497;DHT22;4786;51.270;4.456;2024-01-07T19:47:09;0.20;99.90
9497;DHT22;4786;51.270;4.456;2024-01-07T19:49:36;0.20;99.90
9497;DHT22;4786;51.270;4.456;2024-01-07T19:52:02;0.10;99.90
9497;DHT22;4786;51.270;4.456;2024-01-07T19:54:28;0.10;99.90
9497;DHT22;4786;51.270;4.456;2024-01-07T19:56:54;0.20;99.90
9497;DHT22;4786;51.270;4.456;2024-01-07T19:59:20;0.20;99.90
9497;DHT22;4786;51.270;4.456;2024-01-07T20:01:49;0.10;99.90
9497;DHT22;4786;51.270;4.456;2024-01-07T20:04:15;0.10;99.90
9497;DHT22;4786;51.270;4.456;2024-01-07T20:06:41;0.10;99.90
9497;DHT22;4786;51.270;4.456;2024-01-07T20:09:07;0.40;99.90
9497;DHT22;4786;51.270;4.456;2024-01-07T20:11:33;0.30;99.90
9497;DHT22;4786;51.270;4.456;2024-01-07T20:13:58;0.20;99.90
9497;DHT22;4786;51.270;4.456;2024-01-07T20:16:25;0.30;99.90
9497;DHT22;4786;51.270;4.456;2024-01-07T20:18:50;0.20;99.90
9497;DHT22;4786;51.270;4.456;2024-01-07T20:21:24;0.10;99.90
9497;DHT22;4786;51.270;4.456;2024-01-07T20:23:52;0.20;99.90
9497;DHT22;4786;51.270;4.456;2024-01-07T20:26:37;0.10;99.90
9497;DHT22;4786;51.270;4.456;2024-01-07T20:29:04;0.10;99.90
9497;DHT22;4786;51.270;4.456;2024-01-07T20:31:33;0.20;99.90
9497;DHT22;4786;51.270;4.456;2024-01-07T20:33:59;0.20;99.90
9497;DHT22;4786;51.270;4.456;2024-01-07T20:36:26;0.10;99.90
9497;DHT22;4786;51.270;4.456;2024-01-07T20:38:53;0.10;99.90
9497;DHT22;4786;51.270;4.456;2024-01-07T20:41:19;-0.10;99.90
9497;DHT22;4786;51.270;4.456;2024-01-07T20:43:46;0.00;99.90
9497;DHT22;4786;51.270;4.456;2024-01-07T20:46:12;0.00;99.90
9497;DHT22;4786;51.270;4.456;2024-01-07T20:48:38;-0.10;99.90
9497;DHT22;4786;51.270;4.456;2024-01-07T20:51:05;0.00;99.90
9497;DHT22;4786;51.270;4.456;2024-01-07T20:53:31;-0.10;99.90
9497;DHT22;4786;51.270;4.456;2024-01-07T20:55:57;-0.10;99.90
9497;DHT22;4786;51.270;4.456;2024-01-07T20:58:27;0.00;99.90
9497;DHT22;4786;51.270;4.456;2024-01-07T21:00:53;0.00;99.90
9497;DHT22;4786;51.270;4.456;2024-01-07T21:03:19;0.20;99.90
9497;DHT22;4786;51.270;4.456;2024-01-07T21:05:45;0.00;99.90
9497;DHT22;4786;51.270;4.456;2024-01-07T21:08:12;-0.20;99.90
9497;DHT22;4786;51.270;4.456;2024-01-07T21:10:38;-0.20;99.90
9497;DHT22;4786;51.270;4.456;2024-01-07T21:13:06;-0.10;99.90
9497;DHT22;4786;51.270;4.456;2024-01-07T21:15:32;0.00;99.90
9497;DHT22;4786;51.270;4.456;2024-01-07T21:17:59;0.00;99.90
9497;DHT22;4786;51.270;4.456;2024-01-07T21:20:30;-0.10;99.90
9497;DHT22;4786;51.270;4.456;2024-01-07T21:22:57;0.20;99.90
9497;DHT22;4786;51.270;4.456;2024-01-07T21:25:23;0.10;99.90
9497;DHT22;4786;51.270;4.456;2024-01-07T21:27:49;-0.10;99.90
9497;DHT22;4786;51.270;4.456;2024-01-07T21:30:15;0.10;99.90
9497;DHT22;4786;51.270;4.456;2024-01-07T21:32:41;-0.10;99.90
9497;DHT22;4786;51.270;4.456;2024-01-07T21:35:08;-0.10;99.90
9497;DHT22;4786;51.270;4.456;2024-01-07T21:37:33;-0.10;99.90
9497;DHT22;4786;51.270;4.456;2024-01-07T21:39:59;-0.20;99.90
9497;DHT22;4786;51.270;4.456;2024-01-07T21:42:25;-0.20;99.90
9497;DHT22;4786;51.270;4.456;2024-01-07T21:44:51;-0.20;99.90
9497;DHT22;4786;51.270;4.456;2024-01-07T21:47:17;-0.30;99.90
9497;DHT22;4786;51.270;4.456;2024-01-07T21:49:48;-0.20;99.90
9497;DHT22;4786;51.270;4.456;2024-01-07T21:52:18;-0.10;99.90
9497;DHT22;4786;51.270;4.456;2024-01-07T21:54:54;-0.20;99.90
9497;DHT22;4786;51.270;4.456;2024-01-07T21:57:20;-0.30;99.90
9497;DHT22;4786;51.270;4.456;2024-01-07T21:59:45;-0.30;99.90
9497;DHT22;4786;51.270;4.456;2024-01-07T22:02:11;-0.30;99.90
9497;DHT22;4786;51.270;4.456;2024-01-07T22:04:38;-0.30;99.90
9497;DHT22;4786;51.270;4.456;2024-01-07T22:07:04;-0.30;99.90
9497;DHT22;4786;51.270;4.456;2024-01-07T22:09:30;-0.40;99.90
9497;DHT22;4786;51.270;4.456;2024-01-07T22:11:56;-0.30;99.90
9497;DHT22;4786;51.270;4.456;2024-01-07T22:14:22;-0.30;99.90
9497;DHT22;4786;51.270;4.456;2024-01-07T22:16:47;-0.30;99.90
9497;DHT22;4786;51.270;4.456;2024-01-07T22:19:14;-0.50;99.90
9497;DHT22;4786;51.270;4.456;2024-01-07T22:21:40;-0.40;99.90
9497;DHT22;4786;51.270;4.456;2024-01-07T22:24:06;-0.30;99.90
9497;DHT22;4786;51.270;4.456;2024-01-07T22:26:34;-0.20;99.90
9497;DHT22;4786;51.270;4.456;2024-01-07T22:29:01;-0.30;99.90
9497;DHT22;4786;51.270;4.456;2024-01-07T22:31:27;-0.30;99.90
9497;DHT22;4786;51.270;4.456;2024-01-07T22:33:53;-0.10;99.90
9497;DHT22;4786;51.270;4.456;2024-01-07T22:36:19;0.10;99.90
9497;DHT22;4786;51.270;4.456;2024-01-07T22:38:45;-0.30;99.90
9497;DHT22;4786;51.270;4.456;2024-01-07T22:41:11;-0.20;99.90
9497;DHT22;4786;51.270;4.456;2024-01-07T22:43:37;-0.20;99.90
9497;DHT22;4786;51.270;4.456;2024-01-07T22:46:04;-0.30;99.90
9497;DHT22;4786;51.270;4.456;2024-01-07T22:48:30;-0.30;99.90
9497;DHT22;4786;51.270;4.456;2024-01-07T22:50:57;-0.30;99.90
9497;DHT22;4786;51.270;4.456;2024-01-07T22:53:23;-0.40;99.90
9497;DHT22;4786;51.270;4.456;2024-01-07T22:55:50;-0.50;99.90
9497;DHT22;4786;51.270;4.456;2024-01-07T22:58:16;-0.50;99.90
9497;DHT22;4786;51.270;4.456;2024-01-07T23:00:42;-0.40;99.90
9497;DHT22;4786;51.270;4.456;2024-01-07T23:03:08;-0.50;99.90
9497;DHT22;4786;51.270;4.456;2024-01-07T23:05:35;-0.50;99.90
9497;DHT22;4786;51.270;4.456;2024-01-07T23:08:01;-0.70;99.90
9497;DHT22;4786;51.270;4.456;2024-01-07T23:10:28;-0.60;99.90
9497;DHT22;4786;51.270;4.456;2024-01-07T23:12:53;-0.60;99.90
9497;DHT22;4786;51.270;4.456;2024-01-07T23:15:19;-0.50;99.90
9497;DHT22;4786;51.270;4.456;2024-01-07T23:17:45;-0.70;99.90
9497;DHT22;4786;51.270;4.456;2024-01-07T23:20:12;-0.60;99.90
9497;DHT22;4786;51.270;4.456;2024-01-07T23:22:38;-0.50;99.90
9497;DHT22;4786;51.270;4.456;2024-01-07T23:25:07;-0.60;99.90